Time;durP1;ratioP1;P1;durP2;ratioP2;P2;SDS_P1;SDS_P2;PMS_P1;PMS_P2;Temp;Humidity;BMP_temperature;BMP_pressure;BME280_temperature;BME280_humidity;BME280_pressure;Samples;Min_cycle;Max_cycle;Signal;HPM_P1;HPM_P2
2022/04/02 00:02:04;;;;;;;8.67;7.77;;;2.70;98.80;;;;;;5019996;28;20222;-89
2022/04/02 00:04:32;;;;;;;10.53;9.43;;;2.70;98.90;;;;;;5034542;28;20683;-89
2022/04/02 00:06:59;;;;;;;8.60;7.70;;;2.80;99.00;;;;;;5050708;28;20225;-90
2022/04/02 00:09:26;;;;;;;8.23;7.53;;;2.70;98.60;;;;;;5045005;28;20273;-89
2022/04/02 00:11:53;;;;;;;8.00;7.27;;;2.60;98.60;;;;;;5038499;28;20232;-90
2022/04/02 00:14:20;;;;;;;7.27;6.60;;;2.70;99.00;;;;;;5020290;28;20209;-89
2022/04/02 00:16:49;;;;;;;8.20;7.40;;;2.50;98.40;;;;;;5035652;28;20317;-89
2022/04/02 00:19:16;;;;;;;8.00;7.20;;;2.40;98.80;;;;;;5008415;28;20658;-89
2022/04/02 00:21:43;;;;;;;8.37;7.57;;;2.40;99.00;;;;;;5011280;28;20293;-89
2022/04/02 00:24:10;;;;;;;9.37;8.37;;;2.60;99.10;;;;;;5020729;28;20214;-91
2022/04/02 00:26:37;;;;;;;9.27;8.37;;;2.70;99.20;;;;;;5003881;28;20233;-91
2022/04/02 00:29:10;;;;;;;8.90;7.93;;;2.80;99.00;;;;;;5038145;28;20222;-89
2022/04/02 00:31:40;;;;;;;9.30;8.40;;;2.80;98.70;;;;;;5018704;28;20230;-90
2022/04/02 00:34:10;;;;;;;8.40;7.60;;;2.80;98.40;;;;;;5033099;28;20643;-89
2022/04/02 00:36:38;;;;;;;8.57;7.77;;;2.60;97.90;;;;;;5039257;28;20288;-89
2022/04/02 00:39:07;;;;;;;8.77;7.73;;;2.60;98.50;;;;;;5043593;28;20294;-90
2022/04/02 00:41:35;;;;;;;7.90;7.10;;;2.70;98.90;;;;;;5018620;28;20272;-89
2022/04/02 00:44:11;;;;;;;7.63;6.93;;;2.70;98.60;;;;;;4993686;28;20210;-90
2022/04/02 00:46:41;;;;;;;9.03;8.13;;;2.60;98.40;;;;;;5022078;28;20236;-90
2022/04/02 00:49:11;;;;;;;8.43;7.63;;;2.70;99.00;;;;;;5035505;28;20236;-89
2022/04/02 00:51:42;;;;;;;7.60;6.90;;;2.80;98.90;;;;;;5048061;28;20230;-90
2022/04/02 00:54:11;;;;;;;8.37;7.57;;;2.70;98.60;;;;;;5014630;28;20230;-93
2022/04/02 00:56:39;;;;;;;7.77;6.93;;;2.70;98.80;;;;;;5037966;28;20588;-90
2022/04/02 00:59:06;;;;;;;5.20;4.70;;;2.70;98.80;;;;;;5047035;28;20194;-90
2022/04/02 01:01:34;;;;;;;6.37;5.77;;;2.60;98.50;;;;;;5036198;28;20314;-90
2022/04/02 01:04:02;;;;;;;4.47;4.07;;;2.70;99.50;;;;;;5005348;28;20199;-90
2022/04/02 01:09:12;;;;;;;3.77;3.47;;;2.90;98.90;;;;;;5041371;28;20210;-90
2022/04/02 01:11:41;;;;;;;3.80;3.40;;;2.90;98.40;;;;;;5038680;28;20233;-90
2022/04/02 01:14:09;;;;;;;2.87;2.67;;;3.00;98.30;;;;;;5017673;28;20198;-93
2022/04/02 01:16:36;;;;;;;3.37;3.07;;;2.90;98.30;;;;;;5039999;28;20238;-90
2022/04/02 01:19:05;;;;;;;3.33;2.80;;;2.90;98.30;;;;;;5008203;28;20204;-90
2022/04/02 01:21:34;;;;;;;2.73;2.53;;;2.90;98.00;;;;;;5037277;28;20228;-90
2022/04/02 01:24:23;;;;;;;2.80;2.60;;;2.80;97.70;;;;;;5037024;28;20207;-90
2022/04/02 01:26:50;;;;;;;4.57;3.10;;;2.80;98.20;;;;;;5041405;28;20308;-91
2022/04/02 01:29:20;;;;;;;2.60;2.40;;;2.90;98.60;;;;;;5046512;28;20226;-90
2022/04/02 01:31:48;;;;;;;3.10;2.80;;;3.00;98.30;;;;;;5036727;28;20308;-90
2022/04/02 01:34:15;;;;;;;3.40;3.10;;;3.10;98.20;;;;;;5023293;28;20215;-91
2022/04/02 01:36:42;;;;;;;2.97;2.70;;;3.20;98.10;;;;;;5007998;28;20680;-90
2022/04/02 01:39:09;;;;;;;3.07;2.73;;;3.10;97.50;;;;;;5034359;28;20199;-90
2022/04/02 01:41:38;;;;;;;3.77;3.10;;;2.80;97.20;;;;;;5024050;28;20242;-91
2022/04/02 01:44:06;;;;;;;4.60;4.20;;;2.70;97.90;;;;;;5022969;28;20202;-90
2022/04/02 01:46:33;;;;;;;8.37;7.30;;;2.60;98.10;;;;;;5042346;28;20301;-89
2022/04/02 01:49:00;;;;;;;9.03;8.13;;;2.40;98.30;;;;;;5041963;28;20206;-91
2022/04/02 01:51:27;;;;;;;9.50;8.47;;;2.50;98.40;;;;;;5039912;28;20221;-89
2022/04/02 01:53:54;;;;;;;9.40;8.50;;;2.40;98.40;;;;;;5013841;28;20199;-90
2022/04/02 01:56:22;;;;;;;10.17;9.03;;;2.40;98.60;;;;;;5045161;28;20237;-91
2022/04/02 01:58:51;;;;;;;10.50;9.47;;;2.30;98.50;;;;;;5041801;28;20287;-90
2022/04/02 02:01:18;;;;;;;10.33;9.23;;;2.20;98.80;;;;;;5025613;28;20227;-89
2022/04/02 02:03:45;;;;;;;10.63;9.53;;;2.20;98.90;;;;;;5014252;28;20669;-92
2022/04/02 02:06:12;;;;;;;11.83;9.47;;;2.10;99.00;;;;;;5032814;28;20238;-90
2022/04/02 02:08:39;;;;;;;10.77;9.67;;;2.10;99.30;;;;;;5035373;28;20207;-90
2022/04/02 02:11:13;;;;;;;10.50;9.40;;;2.10;99.20;;;;;;5043765;28;20226;-89
2022/04/02 02:13:40;;;;;;;12.00;10.70;;;2.20;99.00;;;;;;5042581;28;20225;-91
2022/04/02 02:16:08;;;;;;;10.97;9.83;;;2.10;99.10;;;;;;5038836;28;20234;-90
2022/04/02 02:18:35;;;;;;;11.23;9.83;;;2.10;99.20;;;;;;5042320;28;20198;-89
2022/04/02 02:21:02;;;;;;;11.20;10.00;;;2.00;99.60;;;;;;5046728;28;20232;-90
2022/04/02 02:23:30;;;;;;;11.70;10.00;;;1.90;99.60;;;;;;5047393;28;20286;-90
2022/04/02 02:25:57;;;;;;;10.93;9.80;;;1.90;99.60;;;;;;5022290;28;20226;-90
2022/04/02 02:28:25;;;;;;;12.03;10.73;;;1.80;99.60;;;;;;5026088;28;20305;-91
2022/04/02 02:30:54;;;;;;;12.47;10.50;;;1.80;99.70;;;;;;5011654;28;20242;-90
2022/04/02 02:36:07;;;;;;;13.03;11.10;;;1.80;99.60;;;;;;5034734;28;20228;-90
2022/04/02 02:38:35;;;;;;;14.20;12.27;;;1.70;99.80;;;;;;5022216;28;20209;-90
2022/04/02 02:41:03;;;;;;;15.17;12.87;;;1.80;99.90;;;;;;5019974;28;20229;-90
2022/04/02 02:43:30;;;;;;;15.93;13.70;;;1.70;99.90;;;;;;5041664;28;20199;-90
2022/04/02 02:45:57;;;;;;;15.33;13.70;;;1.70;99.90;;;;;;5038888;28;20230;-90
2022/04/02 02:48:26;;;;;;;17.43;14.73;;;1.70;99.90;;;;;;5028651;28;20217;-90
2022/04/02 02:51:00;;;;;;;15.53;13.27;;;1.60;99.90;;;;;;5034590;28;20238;-92
2022/04/02 02:53:28;;;;;;;15.57;13.87;;;1.60;99.90;;;;;;5019191;28;20231;-90
2022/04/02 02:55:55;;;;;;;16.50;13.93;;;1.70;99.90;;;;;;5042257;28;20605;-90
2022/04/02 02:58:22;;;;;;;14.17;12.40;;;1.60;99.90;;;;;;5021522;28;20540;-90
2022/04/02 03:00:49;;;;;;;16.07;13.30;;;1.60;99.90;;;;;;5049971;28;20245;-90
2022/04/02 03:03:16;;;;;;;16.20;14.17;;;1.70;99.90;;;;;;5057887;28;20211;-89
2022/04/02 03:08:26;;;;;;;17.33;14.50;;;1.60;99.80;;;;;;5049031;28;20259;-91
2022/04/02 03:10:54;;;;;;;15.57;13.80;;;1.50;99.60;;;;;;5020482;28;20257;-89
2022/04/02 03:13:22;;;;;;;15.23;13.27;;;1.50;99.80;;;;;;5043686;28;20623;-90
2022/04/02 03:15:51;;;;;;;16.23;13.17;;;1.50;99.80;;;;;;5034657;28;20229;-90
2022/04/02 03:18:18;;;;;;;15.63;13.60;;;1.50;99.90;;;;;;5024353;28;20208;-89
2022/04/02 03:20:47;;;;;;;17.03;13.70;;;1.40;99.80;;;;;;5054609;28;20226;-89
2022/04/02 03:25:55;;;;;;;16.00;13.70;;;1.30;99.90;;;;;;5041064;28;20233;-89
2022/04/02 03:28:23;;;;;;;17.83;14.13;;;1.30;99.90;;;;;;5032575;28;20238;-89
2022/04/02 03:39:41;;;;;;;16.73;13.97;;;1.20;99.90;;;;;;5012782;28;20219;-90
2022/04/02 03:47:49;;;;;;;15.17;13.27;;;1.20;99.90;;;;;;5032895;28;20216;-90
2022/04/02 03:51:08;;;;;;;16.70;13.53;;;1.20;99.90;;;;;;5031044;28;20255;-90
2022/04/02 04:01:29;;;;;;;16.60;13.13;;;1.10;99.90;;;;;;4980900;28;20201;-89
2022/04/02 04:04:53;;;;;;;16.07;12.83;;;1.10;99.90;;;;;;4983176;28;20195;-90
2022/04/02 04:32:48;;;;;;;14.33;11.57;;;0.90;99.90;;;;;;5024109;28;20215;-91
2022/04/02 04:35:16;;;;;;;13.57;11.10;;;0.90;99.90;;;;;;5024024;28;20314;-93
2022/04/02 04:37:44;;;;;;;16.10;11.23;;;0.90;99.90;;;;;;5028696;28;20223;-90
2022/04/02 04:40:43;;;;;;;15.03;11.57;;;0.90;99.90;;;;;;5014811;28;20260;-90
2022/04/02 04:43:11;;;;;;;15.07;11.87;;;0.80;99.90;;;;;;4992604;28;20209;-90
2022/04/02 04:45:38;;;;;;;19.90;12.10;;;0.80;99.90;;;;;;5009300;28;20231;-90
2022/04/02 04:51:23;;;;;;;16.37;11.23;;;0.80;99.90;;;;;;4918331;29;20260;-90
2022/04/02 04:53:51;;;;;;;13.77;11.03;;;0.90;99.90;;;;;;4934424;29;20213;-91
2022/04/02 04:56:23;;;;;;;13.80;10.77;;;0.80;99.90;;;;;;4983438;28;20256;-92
2022/04/02 04:59:12;;;;;;;16.23;11.50;;;0.80;99.40;;;;;;5043159;28;20194;-91
2022/04/02 05:01:48;;;;;;;13.83;10.60;;;0.80;99.40;;;;;;5015670;28;20243;-90
2022/04/02 05:04:16;;;;;;;16.17;10.73;;;0.80;99.40;;;;;;5030842;28;20564;-90
2022/04/02 05:06:46;;;;;;;14.73;11.10;;;0.80;99.40;;;;;;5028251;28;20234;-89
2022/04/02 05:27:48;;;;;;;16.73;11.20;;;0.80;99.00;;;;;;5011966;28;20231;-87
2022/04/02 05:45:48;;;;;;;20.07;10.83;;;0.90;98.50;;;;;;5634831;23;20223;-89
2022/04/02 05:48:17;;;;;;;16.53;11.40;;;0.90;98.60;;;;;;5084634;28;20210;-89
2022/04/02 05:51:28;;;;;;;17.30;11.10;;;0.80;98.40;;;;;;5087379;28;20204;-88
2022/04/02 05:54:12;;;;;;;17.63;11.50;;;0.90;98.40;;;;;;5084617;28;20976;-89
2022/04/02 05:56:39;;;;;;;16.40;11.17;;;0.80;97.80;;;;;;5083740;28;20232;-89
2022/04/02 05:59:11;;;;;;;17.07;11.67;;;0.80;98.00;;;;;;5083639;28;20195;-89
2022/04/02 06:04:25;;;;;;;18.70;12.20;;;0.80;98.20;;;;;;5068920;28;20744;-88
2022/04/02 06:06:54;;;;;;;17.67;12.30;;;0.80;98.40;;;;;;5084703;28;20234;-89
2022/04/02 06:09:22;;;;;;;20.87;11.90;;;0.90;98.50;;;;;;5075763;28;20207;-90
2022/04/02 06:11:49;;;;;;;20.17;11.37;;;0.80;98.20;;;;;;5071763;28;20224;-89
2022/04/02 06:14:17;;;;;;;19.60;12.30;;;0.80;97.90;;;;;;5083323;28;20265;-89
2022/04/02 06:25:50;;;;;;;21.17;12.53;;;1.10;97.70;;;;;;4992928;28;20282;-88
2022/04/02 06:28:18;;;;;;;20.93;12.27;;;1.00;97.60;;;;;;5059821;28;20219;-85
2022/04/02 06:30:45;;;;;;;15.73;11.90;;;1.00;97.50;;;;;;5100373;28;20219;-88
2022/04/02 06:33:39;;;;;;;18.63;12.63;;;1.00;97.60;;;;;;5111014;28;20206;-89
2022/04/02 07:13:22;;;;;;;17.27;11.73;;;1.30;96.50;;;;;;6252274;22;20183;-92
2022/04/02 07:16:09;;;;;;;21.20;11.43;;;1.40;96.70;;;;;;5046984;28;20251;-88
2022/04/02 07:18:45;;;;;;;17.57;11.97;;;1.50;96.50;;;;;;5060361;28;20257;-91
2022/04/02 07:21:24;;;;;;;17.60;12.00;;;1.50;96.30;;;;;;5053963;28;20233;-90
2022/04/02 07:23:52;;;;;;;17.80;11.67;;;1.50;96.20;;;;;;5056911;28;20219;-89
2022/04/02 07:26:20;;;;;;;19.33;12.30;;;1.50;96.20;;;;;;5074116;28;20209;-90
2022/04/02 07:28:51;;;;;;;19.80;11.67;;;1.40;95.90;;;;;;5073500;28;20276;-92
2022/04/02 07:31:19;;;;;;;18.23;11.20;;;1.40;95.80;;;;;;5067478;28;20225;-90
2022/04/02 07:33:46;;;;;;;19.23;12.07;;;1.50;95.70;;;;;;5037660;28;20190;-89
2022/04/02 07:36:21;;;;;;;17.47;10.53;;;1.50;95.60;;;;;;5053036;28;20234;-88
2022/04/02 07:39:01;;;;;;;18.33;11.20;;;1.50;95.00;;;;;;5036938;28;20249;-89
2022/04/02 07:44:39;;;;;;;17.70;11.50;;;1.50;94.60;;;;;;5039034;28;20213;-86
2022/04/02 07:47:18;;;;;;;17.90;11.37;;;1.60;94.40;;;;;;5051941;28;20230;-89
2022/04/02 07:49:47;;;;;;;17.63;10.90;;;1.60;94.40;;;;;;5052893;28;20225;-87
2022/04/02 07:52:17;;;;;;;22.17;12.27;;;1.70;94.40;;;;;;5055268;28;20289;-87
2022/04/02 07:54:48;;;;;;;18.27;11.97;;;1.90;94.90;;;;;;5048389;28;20217;-87
2022/04/02 07:57:15;;;;;;;18.37;11.90;;;2.10;95.30;;;;;;5065741;28;20219;-90
2022/04/02 07:59:51;;;;;;;17.80;11.50;;;2.20;94.50;;;;;;5052695;28;20209;-87
2022/04/02 08:02:38;;;;;;;18.37;10.80;;;2.20;94.50;;;;;;5052675;28;20229;-87
2022/04/02 08:05:10;;;;;;;19.67;11.60;;;2.50;94.70;;;;;;5055221;28;21958;-87
2022/04/02 08:07:39;;;;;;;19.10;10.87;;;2.60;94.60;;;;;;5053887;28;20206;-88
2022/04/02 08:10:11;;;;;;;18.80;10.50;;;2.80;93.70;;;;;;5055679;28;20226;-88
2022/04/02 08:12:41;;;;;;;17.40;10.77;;;2.70;93.30;;;;;;5055738;28;20202;-88
2022/04/02 08:15:24;;;;;;;19.20;11.07;;;2.80;94.10;;;;;;5061249;28;20292;-91
2022/04/02 08:18:01;;;;;;;22.93;11.60;;;2.80;93.80;;;;;;5062027;28;20576;-86
2022/04/02 08:20:28;;;;;;;17.73;11.83;;;2.70;93.90;;;;;;5047808;28;20225;-88
2022/04/02 08:23:18;;;;;;;19.97;11.07;;;2.70;94.10;;;;;;5061516;28;20205;-88
2022/04/02 08:26:08;;;;;;;17.47;10.67;;;2.80;94.40;;;;;;5058586;28;20241;-89
2022/04/02 08:28:56;;;;;;;18.30;10.00;;;2.80;94.00;;;;;;5070750;28;20221;-89
2022/04/02 08:31:40;;;;;;;16.47;9.70;;;2.50;94.10;;;;;;5062966;28;20256;-87
2022/04/02 08:34:18;;;;;;;16.13;9.63;;;2.50;94.60;;;;;;5075829;28;20197;-87
2022/04/02 08:36:52;;;;;;;11.87;9.03;;;2.60;94.60;;;;;;5063194;28;20227;-86
2022/04/02 08:39:26;;;;;;;16.53;9.33;;;2.80;94.30;;;;;;5057777;28;20194;-87
2022/04/02 08:42:31;;;;;;;11.77;9.60;;;3.00;93.50;;;;;;5064257;28;20234;-89
2022/04/02 08:45:09;;;;;;;12.50;9.23;;;3.00;93.60;;;;;;5052084;28;20195;-88
2022/04/02 08:48:18;;;;;;;14.97;9.27;;;3.20;93.80;;;;;;5062855;28;20201;-86
2022/04/02 08:50:49;;;;;;;14.80;9.50;;;3.20;93.60;;;;;;5063743;28;20316;-87
2022/04/02 08:54:04;;;;;;;14.27;8.87;;;2.90;93.00;;;;;;5062389;28;20195;-87
2022/04/02 08:56:35;;;;;;;10.80;8.67;;;2.80;93.50;;;;;;5052190;28;20226;-88
2022/04/02 08:59:04;;;;;;;13.23;9.67;;;2.80;94.60;;;;;;5072202;28;20297;-90
2022/04/02 09:01:40;;;;;;;12.50;9.33;;;3.00;94.30;;;;;;5055741;28;20252;-88
2022/04/02 09:04:45;;;;;;;21.63;10.60;;;3.10;93.80;;;;;;5058294;28;20186;-87
2022/04/02 09:08:09;;;;;;;16.53;10.13;;;3.30;93.40;;;;;;5072826;28;20251;-86
2022/04/02 09:11:15;;;;;;;19.20;10.40;;;3.60;93.30;;;;;;5071381;28;20234;-86
2022/04/02 09:14:16;;;;;;;13.23;9.47;;;3.80;91.70;;;;;;5057883;28;21015;-91
2022/04/02 09:17:00;;;;;;;10.97;8.43;;;3.80;91.70;;;;;;5056396;28;20229;-86
2022/04/02 09:19:31;;;;;;;15.87;9.83;;;3.90;90.10;;;;;;5041450;28;20285;-90
2022/04/02 09:22:27;;;;;;;12.80;8.67;;;3.90;91.50;;;;;;5053563;28;20222;-87
2022/04/02 09:25:52;;;;;;;14.73;9.90;;;4.00;91.00;;;;;;5051908;28;20257;-88
2022/04/02 09:28:46;;;;;;;14.13;8.67;;;4.30;91.40;;;;;;5054660;28;20290;-88
2022/04/02 09:31:47;;;;;;;12.70;8.63;;;4.70;91.30;;;;;;5048675;28;20230;-87
2022/04/02 09:34:55;;;;;;;10.97;8.70;;;4.80;88.10;;;;;;5057871;28;20193;-88
2022/04/02 09:38:06;;;;;;;10.57;7.70;;;4.80;87.70;;;;;;5033851;28;20297;-89
2022/04/02 09:40:44;;;;;;;9.57;7.73;;;4.70;88.70;;;;;;5021959;28;20238;-88
2022/04/02 09:43:19;;;;;;;11.93;7.63;;;4.10;89.40;;;;;;5061922;28;20197;-89
2022/04/02 09:45:53;;;;;;;12.93;8.17;;;3.80;90.30;;;;;;5056130;28;20214;-86
2022/04/02 09:48:27;;;;;;;11.60;7.73;;;3.20;90.40;;;;;;5064243;28;20201;-85
2022/04/02 09:50:56;;;;;;;13.43;7.97;;;3.10;91.50;;;;;;5059178;28;20220;-87
2022/04/02 09:53:26;;;;;;;12.47;8.17;;;3.10;91.30;;;;;;5060134;28;20203;-86
2022/04/02 09:56:17;;;;;;;10.57;7.17;;;3.00;92.30;;;;;;5062018;28;20245;-87
2022/04/02 09:59:02;;;;;;;8.53;6.90;;;2.90;91.10;;;;;;5053328;28;20279;-88
2022/04/02 10:01:31;;;;;;;10.57;7.77;;;2.80;91.70;;;;;;5044657;28;20229;-87
2022/04/02 10:04:01;;;;;;;15.93;7.63;;;2.60;92.30;;;;;;5058213;28;20228;-88
2022/04/02 10:06:35;;;;;;;13.50;7.80;;;2.50;92.40;;;;;;5054828;28;20591;-87
2022/04/02 10:09:08;;;;;;;12.40;7.80;;;2.60;93.40;;;;;;5048892;28;20304;-88
2022/04/02 10:11:41;;;;;;;10.70;8.10;;;2.60;92.40;;;;;;5050418;28;20236;-87
2022/04/02 10:14:09;;;;;;;11.53;8.80;;;2.50;92.90;;;;;;5063445;28;20228;-88
2022/04/02 10:16:37;;;;;;;10.90;8.63;;;2.40;92.80;;;;;;5056226;28;20221;-87
2022/04/02 10:19:10;;;;;;;13.17;8.53;;;2.40;93.30;;;;;;5069554;28;20754;-88
2022/04/02 10:21:38;;;;;;;11.90;8.77;;;2.40;93.20;;;;;;5067867;28;20579;-86
2022/04/02 10:24:27;;;;;;;11.23;8.83;;;2.30;92.20;;;;;;5062416;28;20510;-86
2022/04/02 10:26:58;;;;;;;17.10;8.93;;;2.30;92.70;;;;;;5050333;28;20723;-87
2022/04/02 10:29:45;;;;;;;14.27;9.07;;;2.20;92.60;;;;;;5060397;28;20215;-87
2022/04/02 10:32:44;;;;;;;13.37;9.13;;;2.20;93.00;;;;;;5059767;28;20216;-87
2022/04/02 10:35:30;;;;;;;14.30;9.50;;;2.10;93.00;;;;;;5038430;28;20289;-87
2022/04/02 10:38:08;;;;;;;15.50;9.57;;;2.50;92.70;;;;;;5057719;28;20221;-85
2022/04/02 10:50:55;;;;;;;13.90;8.97;;;3.80;86.80;;;;;;5078859;28;20223;-85
2022/04/02 10:57:39;;;;;;;15.23;7.37;;;4.00;85.10;;;;;;5060999;28;20303;-84
2022/04/02 11:00:09;;;;;;;14.90;8.83;;;3.90;83.60;;;;;;5062440;28;20208;-83
2022/04/02 11:05:47;;;;;;;15.47;9.30;;;3.50;88.00;;;;;;5052757;28;20229;-84
2022/04/02 11:08:47;;;;;;;18.33;8.77;;;3.40;88.00;;;;;;5060812;28;20541;-84
2022/04/02 11:14:39;;;;;;;10.50;9.20;;;3.30;87.90;;;;;;5065760;28;20205;-86
2022/04/02 11:21:21;;;;;;;11.60;9.00;;;3.40;88.50;;;;;;5069102;28;20231;-86
2022/04/02 11:29:54;;;;;;;9.90;8.87;;;3.90;84.40;;;;;;5288641;22;20684;-88
2022/04/02 11:32:33;;;;;;;12.17;8.60;;;4.00;84.50;;;;;;5036631;28;20252;-88
2022/04/02 11:35:03;;;;;;;14.90;9.27;;;4.00;85.30;;;;;;5038338;28;20277;-88
2022/04/02 11:37:36;;;;;;;12.57;8.53;;;3.90;85.90;;;;;;5021549;28;20209;-87
2022/04/02 11:40:12;;;;;;;13.50;8.87;;;3.90;82.90;;;;;;5035558;28;20203;-86
2022/04/02 11:42:47;;;;;;;12.93;8.60;;;3.90;83.20;;;;;;5044570;28;20190;-85
2022/04/02 11:49:01;;;;;;;11.73;7.40;;;3.60;83.80;;;;;;5048376;28;20170;-91
2022/04/02 11:51:30;;;;;;;12.63;8.30;;;3.60;84.60;;;;;;5035837;28;20226;-92
2022/04/02 11:54:02;;;;;;;10.47;7.90;;;4.00;86.40;;;;;;5030517;28;20195;-90
2022/04/02 11:56:34;;;;;;;9.83;8.47;;;4.00;83.70;;;;;;5027616;28;20255;-90
2022/04/02 12:01:50;;;;;;;16.43;8.57;;;3.60;88.00;;;;;;5019391;28;20246;-86
2022/04/02 12:04:22;;;;;;;10.73;8.53;;;3.40;89.50;;;;;;5038028;28;20206;-88
2022/04/02 12:06:51;;;;;;;11.20;8.60;;;3.40;90.60;;;;;;5047315;28;20191;-89
2022/04/02 12:09:20;;;;;;;11.83;9.00;;;3.30;90.00;;;;;;5045157;28;20187;-86
2022/04/02 12:11:51;;;;;;;10.23;8.87;;;3.30;90.50;;;;;;5050769;28;20262;-88
2022/04/02 12:14:38;;;;;;;11.70;8.73;;;3.40;90.40;;;;;;5039770;28;20285;-85
2022/04/02 12:19:55;;;;;;;11.30;8.43;;;3.70;88.30;;;;;;5034442;28;20230;-88
2022/04/02 12:22:25;;;;;;;10.13;8.30;;;3.70;88.30;;;;;;5025778;28;20270;-89
2022/04/02 12:28:28;;;;;;;9.80;6.70;;;4.00;85.50;;;;;;5024584;28;20598;-89
2022/04/02 12:31:21;;;;;;;11.07;8.03;;;4.30;81.20;;;;;;5019463;28;20223;-89
2022/04/02 12:33:52;;;;;;;9.17;7.50;;;4.40;81.80;;;;;;5017504;28;20681;-92
2022/04/02 12:39:32;;;;;;;11.73;7.83;;;4.20;80.70;;;;;;5021111;28;20249;-90
2022/04/02 12:46:10;;;;;;;8.83;6.90;;;3.50;88.00;;;;;;5001583;28;20255;-87
2022/04/02 12:55:34;;;;;;;10.17;8.10;;;2.50;90.50;;;;;;5008589;28;20269;-90
2022/04/02 12:58:07;;;;;;;10.83;7.67;;;2.40;90.40;;;;;;5035820;28;20643;-89
2022/04/02 13:00:37;;;;;;;10.20;7.20;;;2.50;91.10;;;;;;5018896;28;20218;-87
2022/04/02 13:06:37;;;;;;;12.30;7.53;;;2.90;90.40;;;;;;5018396;28;20266;-88
2022/04/02 13:09:13;;;;;;;9.93;7.10;;;2.80;90.30;;;;;;5009295;28;20203;-89
2022/04/02 13:11:58;;;;;;;8.70;7.03;;;3.20;90.30;;;;;;5021378;28;20195;-88
2022/04/02 13:14:26;;;;;;;12.57;8.73;;;3.40;88.60;;;;;;5026280;28;20209;-87
2022/04/02 13:16:56;;;;;;;8.07;7.23;;;3.20;89.80;;;;;;5009093;28;20290;-87
2022/04/02 13:22:48;;;;;;;9.83;8.03;;;2.70;91.40;;;;;;5023798;28;20226;-86
2022/04/02 13:25:18;;;;;;;12.07;8.27;;;2.50;92.50;;;;;;5020667;28;20282;-87
2022/04/02 13:28:13;;;;;;;11.93;9.47;;;2.30;93.20;;;;;;5024752;28;20278;-89
2022/04/02 13:30:41;;;;;;;11.97;9.33;;;2.20;93.70;;;;;;5022911;28;20309;-87
2022/04/02 13:34:00;;;;;;;10.77;9.07;;;2.00;94.20;;;;;;5025937;28;20207;-87
2022/04/02 13:39:46;;;;;;;10.80;9.30;;;2.00;94.00;;;;;;4966706;29;20286;-86
2022/04/02 13:45:11;;;;;;;10.70;8.70;;;2.20;94.00;;;;;;5006134;28;20214;-85
2022/04/02 13:47:57;;;;;;;9.57;8.23;;;2.40;94.10;;;;;;5011323;28;20200;-86
2022/04/02 13:53:12;;;;;;;9.30;8.27;;;2.20;93.00;;;;;;5021367;28;20211;-89
2022/04/02 13:55:40;;;;;;;9.63;8.63;;;2.10;93.50;;;;;;5018548;28;20250;-91
2022/04/02 14:00:55;;;;;;;9.37;8.47;;;1.90;94.40;;;;;;5000604;28;20305;-90
2022/04/02 14:03:26;;;;;;;10.00;7.87;;;1.80;94.40;;;;;;5022910;28;20207;-91
2022/04/02 14:09:21;;;;;;;10.60;7.17;;;1.80;93.20;;;;;;5031119;28;20327;-86
2022/04/02 14:18:53;;;;;;;8.77;6.83;;;1.40;93.80;;;;;;5008496;28;20199;-89
2022/04/02 14:21:21;;;;;;;10.90;7.13;;;1.60;94.00;;;;;;5020481;28;20206;-87
2022/04/02 14:23:55;;;;;;;12.10;7.57;;;1.80;94.20;;;;;;5026077;28;20258;-85
2022/04/02 14:26:38;;;;;;;10.40;7.27;;;1.90;93.50;;;;;;5024628;28;20321;-87
2022/04/02 14:35:02;;;;;;;8.03;7.23;;;1.60;93.20;;;;;;5407492;22;20233;-88
2022/04/02 14:44:45;;;;;;;8.63;6.77;;;1.60;93.70;;;;;;5042521;28;20229;-89
2022/04/02 14:48:00;;;;;;;7.80;6.93;;;1.80;92.90;;;;;;5027555;28;20225;-90
2022/04/02 14:51:00;;;;;;;10.67;7.93;;;2.00;92.40;;;;;;5038808;28;20236;-88
2022/04/02 14:54:09;;;;;;;8.07;7.27;;;2.00;91.80;;;;;;5041409;28;20203;-88
2022/04/02 14:57:20;;;;;;;7.80;7.07;;;2.10;91.60;;;;;;5028311;28;20232;-89
2022/04/02 15:00:17;;;;;;;8.80;7.53;;;2.20;91.30;;;;;;5028002;28;20222;-90
2022/04/02 15:03:30;;;;;;;8.23;6.20;;;2.30;91.70;;;;;;5031719;28;20233;-88
2022/04/02 15:06:12;;;;;;;7.93;6.27;;;2.40;91.10;;;;;;5036697;28;20226;-88
2022/04/02 15:09:14;;;;;;;7.83;7.00;;;2.20;91.20;;;;;;5032571;28;20199;-88
2022/04/02 15:11:56;;;;;;;7.97;6.87;;;2.00;91.80;;;;;;5030779;28;21710;-88
2022/04/02 15:14:28;;;;;;;7.73;6.70;;;1.90;93.00;;;;;;5031806;28;20191;-89
2022/04/02 15:16:58;;;;;;;6.90;6.00;;;1.80;92.90;;;;;;5031461;28;20697;-92
2022/04/02 15:19:27;;;;;;;7.70;6.33;;;1.70;92.80;;;;;;5041753;28;20203;-90
2022/04/02 15:22:10;;;;;;;7.83;7.03;;;1.70;92.80;;;;;;5050424;28;20313;-88
2022/04/02 15:24:39;;;;;;;6.80;6.20;;;1.70;92.90;;;;;;5048631;28;20199;-88
2022/04/02 15:27:09;;;;;;;6.60;6.00;;;1.60;93.30;;;;;;5074167;28;20222;-87
2022/04/02 15:29:50;;;;;;;7.03;5.47;;;1.70;93.90;;;;;;5048425;28;20197;-90
2022/04/02 15:32:18;;;;;;;6.63;5.93;;;1.60;93.20;;;;;;5044592;28;20225;-88
2022/04/02 15:34:54;;;;;;;6.47;5.77;;;1.70;93.30;;;;;;5043273;28;20258;-87
2022/04/02 15:37:27;;;;;;;9.23;5.90;;;1.60;93.20;;;;;;5051671;28;20548;-87
2022/04/02 15:40:09;;;;;;;6.70;6.10;;;1.50;94.10;;;;;;5042033;28;20638;-88
2022/04/02 15:42:55;;;;;;;7.77;6.17;;;1.50;93.60;;;;;;5044860;28;20257;-88
2022/04/02 15:45:25;;;;;;;6.53;5.83;;;1.40;94.20;;;;;;5043111;28;20225;-89
2022/04/02 15:47:56;;;;;;;9.10;5.53;;;1.40;94.30;;;;;;5040685;28;20214;-89
2022/04/02 15:50:25;;;;;;;7.03;6.27;;;1.40;94.30;;;;;;5038409;28;20222;-89
2022/04/02 15:53:18;;;;;;;6.97;6.27;;;1.40;94.30;;;;;;5046370;28;20203;-88
2022/04/02 15:55:49;;;;;;;11.80;9.60;;;1.30;94.30;;;;;;5026459;28;20234;-90
2022/04/02 15:58:31;;;;;;;8.43;6.87;;;1.40;96.40;;;;;;5031551;28;20194;-88
2022/04/02 16:05:05;;;;;;;7.83;7.03;;;1.40;94.30;;;;;;5044714;28;20305;-88
2022/04/02 16:23:14;;;;;;;8.00;6.70;;;1.10;94.30;;;;;;4997465;28;20235;-89
2022/04/02 16:31:39;;;;;;;8.43;7.40;;;1.30;94.50;;;;;;5039328;28;20209;-90
2022/04/02 16:34:10;;;;;;;9.03;7.47;;;1.20;94.30;;;;;;5048253;28;20264;-90
2022/04/02 16:42:36;;;;;;;9.63;7.90;;;1.10;95.10;;;;;;5044274;28;20199;-89
2022/04/02 16:47:46;;;;;;;9.47;7.30;;;1.10;95.50;;;;;;5027263;28;20214;-92
2022/04/02 16:50:28;;;;;;;9.00;7.27;;;1.10;96.40;;;;;;5043988;28;20194;-92
2022/04/02 16:52:57;;;;;;;9.43;7.53;;;1.10;95.90;;;;;;5042495;28;20270;-90
2022/04/02 17:30:32;;;;;;;16.57;9.53;;;0.50;96.00;;;;;;4865181;29;20246;-89
2022/04/02 17:36:31;;;;;;;12.60;9.07;;;0.50;96.70;;;;;;5022017;28;20258;-90
2022/04/02 17:39:21;;;;;;;12.00;8.47;;;0.60;96.80;;;;;;5030072;28;20684;-88
2022/04/02 17:51:30;;;;;;;10.43;7.77;;;0.50;96.70;;;;;;4988117;28;20225;-89
2022/04/02 17:54:00;;;;;;;9.67;8.10;;;0.40;96.70;;;;;;4974298;28;20631;-88
2022/04/02 17:56:52;;;;;;;9.53;7.77;;;0.40;96.70;;;;;;5018280;28;20223;-89
2022/04/02 17:59:22;;;;;;;11.13;8.23;;;0.40;97.10;;;;;;5027744;28;20255;-88
2022/04/02 18:02:02;;;;;;;8.33;7.23;;;0.30;97.00;;;;;;4985881;28;20228;-88
2022/04/02 18:17:55;;;;;;;11.07;7.90;;;0.30;97.90;;;;;;4935404;29;20219;-89
2022/04/02 18:24:31;;;;;;;11.47;8.50;;;0.30;97.90;;;;;;5016584;28;20313;-88
2022/04/02 18:31:20;;;;;;;17.43;12.03;;;0.40;97.90;;;;;;4996918;28;20281;-87
2022/04/02 18:33:50;;;;;;;9.83;8.30;;;0.40;97.70;;;;;;4934907;29;20222;-89
2022/04/02 18:39:45;;;;;;;13.50;9.40;;;0.40;97.80;;;;;;4986762;28;20250;-90
2022/04/02 18:42:14;;;;;;;12.70;9.37;;;0.30;98.00;;;;;;5001592;28;20232;-88
2022/04/02 18:59:07;;;;;;;10.73;9.40;;;0.30;98.20;;;;;;4967494;28;20296;-91
2022/04/02 19:02:16;;;;;;;11.07;8.03;;;0.40;98.50;;;;;;5012081;28;20244;-88
2022/04/02 19:05:05;;;;;;;11.43;9.17;;;0.40;97.80;;;;;;5011658;28;20271;-90
2022/04/02 19:17:33;;;;;;;10.33;8.80;;;0.30;98.00;;;;;;4947615;28;20213;-91
2022/04/02 19:22:47;;;;;;;12.90;8.87;;;0.30;97.70;;;;;;5022476;28;20249;-91
2022/04/02 19:25:32;;;;;;;13.47;10.67;;;0.30;97.70;;;;;;5009855;28;20199;-90
2022/04/02 19:28:49;;;;;;;11.90;9.30;;;0.40;97.90;;;;;;5004380;28;20223;-91
2022/04/02 19:34:27;;;;;;;12.00;9.60;;;0.40;98.00;;;;;;5011299;28;20224;-87
2022/04/02 19:36:54;;;;;;;10.37;8.93;;;0.30;97.80;;;;;;5009574;28;20229;-91
2022/04/02 19:39:21;;;;;;;10.40;8.33;;;0.30;97.70;;;;;;5008590;28;20215;-88
2022/04/02 19:41:54;;;;;;;10.43;9.00;;;0.30;97.70;;;;;;5013601;28;20232;-88
2022/04/02 19:44:23;;;;;;;10.53;9.40;;;0.20;97.70;;;;;;5010854;28;20599;-89
2022/04/02 19:46:56;;;;;;;12.13;9.43;;;0.20;98.00;;;;;;4990581;28;20223;-90
2022/04/02 19:49:23;;;;;;;13.40;9.50;;;0.20;98.10;;;;;;4990426;28;20209;-90
2022/04/02 19:51:53;;;;;;;10.83;9.07;;;0.20;98.40;;;;;;5024122;28;20250;-88
2022/04/02 19:54:20;;;;;;;11.63;9.33;;;0.10;98.20;;;;;;4999657;28;20205;-88
2022/04/02 19:56:49;;;;;;;13.93;10.20;;;0.10;98.40;;;;;;5007613;28;20238;-88